Time;durP1;ratioP1;P1;durP2;ratioP2;P2;SDS_P1;SDS_P2;PMS_P1;PMS_P2;Temp;Humidity;BMP_temperature;BMP_pressure;BME280_temperature;BME280_humidity;BME280_pressure;Samples;Min_cycle;Max_cycle;Signal;HPM_P1;HPM_P2
2022/08/23 00:01:29;;;;;;;1.83;0.80;;;;;;;23.58;59.25;100867.94;5051090;28;20045;-67
2022/08/23 00:04:03;;;;;;;1.42;0.63;;;;;;;23.73;58.93;100866.75;5052956;28;20049;-67
2022/08/23 00:06:31;;;;;;;1.20;0.60;;;;;;;23.84;58.44;100867.59;5058272;28;20052;-67
2022/08/23 00:08:58;;;;;;;5.53;0.90;;;;;;;23.80;58.77;100868.78;5062462;28;20057;-67
2022/08/23 00:11:40;;;;;;;1.40;0.70;;;;;;;23.87;58.36;100874.44;5069506;28;20045;-67
2022/08/23 00:14:15;;;;;;;2.13;0.90;;;;;;;23.66;58.80;100868.75;5055375;28;20056;-67
2022/08/23 00:16:43;;;;;;;2.15;0.80;;;;;;;23.68;59.10;100864.31;5067672;28;20460;-68
2022/08/23 00:19:12;;;;;;;1.63;0.80;;;;;;;23.67;59.35;100864.72;5054782;28;20056;-69
2022/08/23 00:21:39;;;;;;;3.17;1.10;;;;;;;23.73;59.13;100868.78;5053089;28;20059;-66
2022/08/23 00:24:08;;;;;;;4.05;0.88;;;;;;;23.64;59.11;100866.31;5040725;28;20045;-66
2022/08/23 00:27:15;;;;;;;2.28;0.90;;;;;;;23.56;59.49;100861.06;5050621;28;20045;-66
2022/08/23 00:29:50;;;;;;;2.13;1.10;;;;;;;23.34;60.47;100860.22;4997008;28;20694;-66
2022/08/23 00:32:24;;;;;;;1.17;0.80;;;;;;;23.27;60.53;100857.34;5045693;28;20057;-67
2022/08/23 00:34:52;;;;;;;2.70;0.90;;;;;;;23.26;60.69;100856.53;5039096;28;20053;-66
2022/08/23 00:37:20;;;;;;;1.70;0.88;;;;;;;23.32;60.85;100848.56;5056923;28;20049;-66
2022/08/23 00:39:47;;;;;;;4.15;0.90;;;;;;;23.46;60.43;100856.22;5061291;28;20052;-67
2022/08/23 00:48:10;;;;;;;1.02;0.60;;;;;;;23.37;60.68;100856.63;5056462;28;20052;-67
2022/08/23 00:50:56;;;;;;;2.67;0.68;;;;;;;23.39;60.48;100863.47;5056139;28;20055;-67
2022/08/23 00:53:33;;;;;;;2.28;1.00;;;;;;;23.41;60.49;100857.44;5034940;28;20061;-67
2022/08/23 00:56:03;;;;;;;2.58;0.80;;;;;;;23.53;60.16;100864.69;5053448;28;20050;-66
2022/08/23 00:58:30;;;;;;;1.83;0.88;;;;;;;23.52;60.25;100851.84;5053854;28;20067;-66
2022/08/23 01:01:01;;;;;;;5.57;1.17;;;;;;;23.57;60.26;100862.69;5050800;28;20048;-67
2022/08/23 01:03:30;;;;;;;1.58;0.60;;;;;;;23.34;60.88;100861.00;5034726;28;20076;-67
2022/08/23 01:06:08;;;;;;;1.50;0.70;;;;;;;23.40;60.74;100865.06;5051683;28;20056;-67
2022/08/23 01:08:37;;;;;;;1.55;0.90;;;;;;;23.45;60.59;100874.31;5051543;28;20064;-67
2022/08/23 01:11:31;;;;;;;2.25;0.75;;;;;;;23.49;60.64;100863.88;5055287;28;20052;-66
2022/08/23 01:14:06;;;;;;;1.13;0.65;;;;;;;23.29;61.05;100866.22;5049709;28;20057;-66
2022/08/23 01:16:45;;;;;;;1.25;0.65;;;;;;;23.29;61.00;100869.81;5050520;28;20057;-67
2022/08/23 01:19:18;;;;;;;1.88;0.88;;;;;;;23.37;61.05;100870.66;5052578;28;20036;-67
2022/08/23 01:21:59;;;;;;;3.95;0.80;;;;;;;23.41;60.83;100869.47;5051628;28;20511;-67
2022/08/23 01:24:27;;;;;;;2.13;0.60;;;;;;;23.40;60.96;100873.50;5065964;28;20050;-67
2022/08/23 01:27:14;;;;;;;0.70;0.60;;;;;;;23.33;61.40;100876.28;5047775;28;20063;-66
2022/08/23 01:29:41;;;;;;;1.85;0.90;;;;;;;23.37;61.23;100870.66;5066749;28;20049;-67
2022/08/23 01:32:10;;;;;;;1.92;0.90;;;;;;;23.42;61.35;100884.34;5051518;28;20516;-67
2022/08/23 01:34:37;;;;;;;2.20;0.73;;;;;;;23.29;61.48;100880.28;5039087;28;20049;-67
2022/08/23 01:37:19;;;;;;;1.85;0.57;;;;;;;23.31;61.68;100875.88;5059464;28;20059;-66
2022/08/23 01:39:48;;;;;;;2.00;0.80;;;;;;;23.32;61.44;100882.28;5052380;28;20547;-66
2022/08/23 01:42:15;;;;;;;3.00;0.80;;;;;;;23.21;61.96;100875.78;5068299;28;20060;-66
2022/08/23 01:44:42;;;;;;;1.60;0.85;;;;;;;23.28;61.87;100870.22;5052568;28;20048;-67
2022/08/23 01:47:10;;;;;;;2.47;0.98;;;;;;;23.12;62.03;100867.72;5036176;28;20056;-66
2022/08/23 01:49:37;;;;;;;2.55;1.00;;;;;;;23.23;62.02;100873.38;5067068;28;20053;-67
2022/08/23 01:52:05;;;;;;;3.22;0.80;;;;;;;23.36;61.71;100875.47;5051007;28;20068;-67
2022/08/23 01:54:32;;;;;;;2.22;0.98;;;;;;;23.36;61.55;100869.84;5051617;28;20045;-67
2022/08/23 01:56:59;;;;;;;2.45;0.82;;;;;;;23.40;61.16;100865.06;5051730;28;20412;-67
2022/08/23 01:59:27;;;;;;;3.80;0.80;;;;;;;23.55;60.77;100862.28;5052955;28;20045;-67
2022/08/23 02:01:55;;;;;;;1.65;0.80;;;;;;;23.47;61.19;100867.09;5039010;28;20057;-67
2022/08/23 02:04:22;;;;;;;2.28;0.82;;;;;;;23.40;61.28;100867.88;5066540;28;20053;-67
2022/08/23 02:06:50;;;;;;;1.73;0.90;;;;;;;23.46;61.11;100875.91;5051364;28;20053;-68
2022/08/23 02:09:21;;;;;;;1.33;0.80;;;;;;;23.05;62.56;100881.72;5051630;28;20448;-67
2022/08/23 02:11:55;;;;;;;1.92;0.80;;;;;;;23.08;62.89;100885.78;5051909;28;20346;-67
2022/08/23 02:14:23;;;;;;;2.65;0.90;;;;;;;22.76;63.59;100882.78;5051333;28;20060;-68
2022/08/23 02:16:57;;;;;;;1.33;0.80;;;;;;;22.93;63.36;100876.44;5047386;28;20078;-68
2022/08/23 02:19:33;;;;;;;3.00;0.82;;;;;;;22.90;63.34;100882.06;5053038;28;20112;-67
2022/08/23 02:22:02;;;;;;;2.80;0.90;;;;;;;22.91;63.29;100878.84;5035658;28;20045;-67
2022/08/23 02:24:30;;;;;;;1.80;0.73;;;;;;;22.83;63.71;100882.00;5051889;28;20440;-66
2022/08/23 02:27:01;;;;;;;2.40;0.82;;;;;;;22.99;63.09;100890.94;5052690;28;20416;-68
2022/08/23 02:29:29;;;;;;;5.53;1.08;;;;;;;22.71;63.90;100891.56;5073870;28;20064;-67
2022/08/23 02:32:02;;;;;;;2.58;0.80;;;;;;;22.68;64.66;100883.94;5067634;28;20049;-67
2022/08/23 02:34:31;;;;;;;2.45;0.90;;;;;;;22.63;64.59;100889.09;5068707;28;20052;-67
2022/08/23 02:36:58;;;;;;;4.50;1.10;;;;;;;22.68;64.52;100897.97;5053527;28;20048;-68
2022/08/23 02:39:25;;;;;;;2.45;0.85;;;;;;;22.45;65.33;100886.13;5052422;28;20415;-67
2022/08/23 02:41:53;;;;;;;2.03;1.05;;;;;;;22.47;65.46;100891.34;5070965;28;20364;-65
2022/08/23 02:44:20;;;;;;;1.65;1.00;;;;;;;22.31;65.98;100880.41;5053423;28;20049;-67
2022/08/23 02:46:48;;;;;;;2.20;0.95;;;;;;;22.17;66.78;100889.53;5077877;28;20089;-67
2022/08/23 02:49:16;;;;;;;1.98;1.05;;;;;;;22.32;66.50;100887.63;5051422;28;20484;-68
2022/08/23 02:51:45;;;;;;;3.55;0.90;;;;;;;22.53;66.06;100889.78;5070126;28;20053;-67
2022/08/23 02:54:12;;;;;;;5.30;0.90;;;;;;;22.33;66.60;100894.88;5037807;28;20052;-68
2022/08/23 02:56:40;;;;;;;4.68;1.00;;;;;;;22.47;65.97;100888.56;5071020;28;20405;-67
2022/08/23 02:59:07;;;;;;;2.45;1.08;;;;;;;22.57;65.74;100885.84;5071491;28;20607;-68
2022/08/23 03:01:37;;;;;;;1.73;1.00;;;;;;;22.87;65.01;100894.09;5070130;28;20530;-66
2022/08/23 03:04:27;;;;;;;3.35;1.00;;;;;;;22.98;64.39;100889.34;5054742;28;20064;-67
2022/08/23 03:06:54;;;;;;;2.42;1.00;;;;;;;22.93;64.37;100893.31;5072133;28;20585;-68
2022/08/23 03:09:22;;;;;;;2.15;1.00;;;;;;;22.93;64.23;100898.13;5054179;28;20048;-66
2022/08/23 03:11:50;;;;;;;2.30;1.10;;;;;;;22.97;64.05;100891.34;5070755;28;20056;-67
2022/08/23 03:14:19;;;;;;;1.25;0.73;;;;;;;22.97;64.42;100901.75;5054520;28;20424;-67
2022/08/23 03:16:47;;;;;;;2.05;0.98;;;;;;;22.91;64.47;100900.53;5053830;28;20052;-67
2022/08/23 03:19:15;;;;;;;1.25;0.95;;;;;;;22.93;64.54;100903.72;5055014;28;20060;-67
2022/08/23 03:21:42;;;;;;;2.58;1.13;;;;;;;23.03;64.40;100897.38;5055898;28;20049;-67
2022/08/23 03:24:12;;;;;;;1.20;0.80;;;;;;;22.98;64.13;100900.59;5041975;28;20072;-67
2022/08/23 03:26:42;;;;;;;3.92;0.98;;;;;;;22.64;65.70;100905.56;5043712;28;20048;-68
2022/08/23 03:29:11;;;;;;;2.53;1.00;;;;;;;22.82;65.24;100903.66;5063981;28;20056;-67
2022/08/23 03:31:57;;;;;;;3.95;1.33;;;;;;;22.48;66.35;100905.00;5062086;28;20059;-67
2022/08/23 03:34:25;;;;;;;1.70;0.93;;;;;;;22.43;66.37;100896.94;5070554;28;20052;-68
2022/08/23 03:36:53;;;;;;;1.90;0.90;;;;;;;22.72;65.74;100903.59;5070952;28;20063;-67
2022/08/23 03:39:20;;;;;;;2.03;1.05;;;;;;;22.79;65.15;100895.22;5055401;28;20045;-67
2022/08/23 03:41:48;;;;;;;2.65;1.00;;;;;;;23.02;64.46;100901.38;5052590;28;20057;-67
2022/08/23 03:44:16;;;;;;;3.72;1.20;;;;;;;23.14;64.39;100898.22;5070914;28;20527;-67
2022/08/23 03:46:44;;;;;;;3.97;1.40;;;;;;;22.97;64.42;100908.19;5064897;28;20440;-68
2022/08/23 03:49:12;;;;;;;2.42;1.00;;;;;;;22.97;64.52;100913.00;5070912;28;20064;-67
2022/08/23 03:51:46;;;;;;;2.70;1.23;;;;;;;22.70;65.27;100908.81;5069065;28;20610;-68
2022/08/23 03:54:14;;;;;;;3.85;1.10;;;;;;;22.52;66.39;100917.06;5070575;28;20052;-68
2022/08/23 03:57:04;;;;;;;2.88;1.20;;;;;;;22.55;66.18;100921.13;5069596;28;20045;-68
2022/08/23 03:59:35;;;;;;;2.92;1.10;;;;;;;22.41;66.79;100916.19;5071276;28;20052;-67
2022/08/23 04:02:06;;;;;;;2.88;1.45;;;;;;;22.58;66.22;100923.97;5066647;28;20044;-68
2022/08/23 04:04:37;;;;;;;3.88;1.10;;;;;;;22.66;66.08;100924.84;5042774;28;20045;-67
2022/08/23 04:07:31;;;;;;;1.83;0.98;;;;;;;22.68;66.04;100931.69;5050599;28;20079;-67
2022/08/23 04:09:58;;;;;;;2.65;1.10;;;;;;;22.76;65.77;100933.34;5068798;28;20053;-67
2022/08/23 04:12:30;;;;;;;3.15;1.00;;;;;;;22.55;66.49;100938.78;5052782;28;20056;-67
2022/08/23 04:14:58;;;;;;;4.57;0.90;;;;;;;22.58;66.35;100943.63;5070275;28;20045;-67
2022/08/23 04:17:25;;;;;;;4.30;1.25;;;;;;;22.66;66.48;100942.50;5050390;28;20057;-66
2022/08/23 04:19:52;;;;;;;2.05;1.10;;;;;;;22.77;66.13;100934.94;5053699;28;20055;-66
2022/08/23 04:22:20;;;;;;;3.60;1.25;;;;;;;22.92;65.58;100941.47;5070234;28;20053;-66
2022/08/23 04:24:48;;;;;;;3.17;1.35;;;;;;;22.65;66.73;100940.06;5054365;28;20048;-67
2022/08/23 04:27:16;;;;;;;2.72;1.10;;;;;;;22.46;67.28;100943.06;5058142;28;20527;-67
2022/08/23 04:29:44;;;;;;;2.63;1.27;;;;;;;22.29;67.99;100941.72;5061801;28;20048;-67
2022/08/23 04:32:14;;;;;;;3.63;1.48;;;;;;;22.29;68.09;100956.59;5052598;28;20723;-66
2022/08/23 04:34:55;;;;;;;2.65;1.20;;;;;;;22.37;68.03;100948.22;5052722;28;20052;-67
2022/08/23 04:37:22;;;;;;;1.70;1.00;;;;;;;22.28;68.52;100948.56;5052638;28;20055;-67
2022/08/23 04:42:41;;;;;;;2.92;1.10;;;;;;;22.10;69.11;100956.78;5070517;28;20045;-67
2022/08/23 04:45:08;;;;;;;2.70;1.08;;;;;;;22.33;68.67;100962.22;5052272;28;20561;-67
2022/08/23 04:47:40;;;;;;;5.80;1.07;;;;;;;22.49;67.79;100959.16;5029900;28;20056;-67
2022/08/23 04:50:09;;;;;;;3.67;1.38;;;;;;;22.61;67.16;100964.50;5050707;28;20040;-65
2022/08/23 04:52:51;;;;;;;4.07;1.30;;;;;;;22.65;67.20;100973.78;5053641;28;20060;-67
2022/08/23 04:55:19;;;;;;;2.38;1.10;;;;;;;22.66;67.43;100964.97;5054634;28;20048;-67
2022/08/23 04:57:50;;;;;;;2.53;1.10;;;;;;;22.68;66.71;100965.38;5033762;28;20064;-67
2022/08/23 05:00:21;;;;;;;2.97;1.17;;;;;;;22.33;67.99;100970.66;5050775;28;20053;-66
2022/08/23 05:02:55;;;;;;;5.80;1.15;;;;;;;22.19;68.66;100970.50;5054084;28;20049;-66
2022/08/23 05:05:24;;;;;;;4.38;1.10;;;;;;;22.15;68.89;100969.66;5067704;28;20045;-66
2022/08/23 05:07:52;;;;;;;1.52;1.00;;;;;;;22.21;69.04;100966.09;5052471;28;20053;-67
2022/08/23 05:10:20;;;;;;;4.03;1.10;;;;;;;22.20;68.72;100975.72;5051185;28;20075;-67
2022/08/23 05:12:51;;;;;;;5.68;1.27;;;;;;;22.07;69.40;100971.56;5052945;28;20409;-67
2022/08/23 05:15:20;;;;;;;3.15;1.20;;;;;;;22.17;69.33;100973.69;5034276;28;20159;-66
2022/08/23 05:17:55;;;;;;;5.00;1.20;;;;;;;22.31;68.84;100975.84;5056337;28;20053;-66
2022/08/23 05:20:23;;;;;;;2.35;1.20;;;;;;;22.54;68.15;100973.69;5068345;28;20056;-67
2022/08/23 05:22:50;;;;;;;2.85;1.10;;;;;;;22.63;67.54;100973.34;5052369;28;20045;-67
2022/08/23 05:25:49;;;;;;;2.80;1.27;;;;;;;22.45;68.06;100972.34;5050700;28;20060;-68
2022/08/23 05:28:27;;;;;;;3.63;1.30;;;;;;;22.62;67.74;100968.91;5038777;28;20057;-67
2022/08/23 05:30:58;;;;;;;5.20;1.60;;;;;;;22.60;68.01;100980.53;5050426;28;20052;-67
2022/08/23 05:33:27;;;;;;;3.47;1.42;;;;;;;22.59;67.73;100976.13;5077513;28;20052;-67
2022/08/23 05:35:54;;;;;;;4.70;1.55;;;;;;;22.60;67.49;100977.72;5052670;28;20052;-67
2022/08/23 05:38:22;;;;;;;9.15;1.77;;;;;;;22.50;68.35;100980.41;5053517;28;20053;-67
2022/08/23 05:40:52;;;;;;;7.18;2.50;;;;;;;22.57;68.14;100992.56;5064434;28;20064;-67
2022/08/23 05:43:21;;;;;;;5.38;1.70;;;;;;;22.49;68.62;100996.44;5067529;28;20045;-66
2022/08/23 05:46:05;;;;;;;5.28;1.60;;;;;;;22.33;68.73;100993.09;5052381;28;20044;-67
2022/08/23 05:48:42;;;;;;;3.72;1.65;;;;;;;22.31;69.45;100992.69;5052500;28;20060;-67
2022/08/23 05:51:21;;;;;;;3.70;1.30;;;;;;;22.31;68.89;100979.47;5065195;28;20052;-67
2022/08/23 05:53:51;;;;;;;6.93;1.40;;;;;;;22.29;69.30;100981.03;5069021;28;20045;-67
2022/08/23 05:56:26;;;;;;;4.60;1.60;;;;;;;22.33;69.21;100979.06;5049804;28;20049;-67
2022/08/23 05:58:56;;;;;;;4.93;1.50;;;;;;;22.51;68.51;100990.47;5063796;28;20052;-67
2022/08/23 06:01:29;;;;;;;5.55;2.72;;;;;;;22.64;68.26;100984.19;5066588;28;20107;-65
2022/08/23 06:04:06;;;;;;;5.03;1.70;;;;;;;22.82;67.55;100985.13;5035213;28;20049;-67
2022/08/23 06:06:34;;;;;;;22.52;2.40;;;;;;;22.96;66.93;100990.06;5051026;28;20056;-66
2022/08/23 06:09:06;;;;;;;15.00;2.25;;;;;;;23.02;66.83;100982.88;5049945;28;20080;-68
2022/08/23 06:11:37;;;;;;;7.10;1.77;;;;;;;22.88;67.05;100986.38;5063699;28;20056;-63
2022/08/23 06:14:07;;;;;;;12.70;7.00;;;;;;;22.74;67.22;100991.06;5064551;28;20040;-66
2022/08/23 06:16:39;;;;;;;6.68;3.20;;;;;;;22.86;67.09;100982.34;5066826;28;20052;-66
2022/08/23 06:19:08;;;;;;;8.90;2.42;;;;;;;22.94;67.44;100995.25;5038398;28;20045;-62
2022/08/23 06:21:54;;;;;;;6.82;2.20;;;;;;;23.26;67.06;100991.47;5056874;28;20044;-67
2022/08/23 06:24:25;;;;;;;13.23;3.60;;;;;;;23.22;66.59;100993.44;5055756;28;20396;-67
2022/08/23 06:27:00;;;;;;;8.73;5.63;;;;;;;23.33;66.40;100999.97;5054303;28;20041;-63
2022/08/23 06:29:27;;;;;;;14.93;8.77;;;;;;;23.38;65.71;100999.59;5067576;28;20046;-61
2022/08/23 06:32:13;;;;;;;19.05;6.63;;;;;;;23.52;65.65;101007.28;5056742;28;20052;-61
2022/08/23 06:35:00;;;;;;;14.10;6.65;;;;;;;23.69;65.29;101006.59;5056224;28;20045;-62
2022/08/23 06:37:55;;;;;;;5.40;2.03;;;;;;;23.71;64.53;101009.78;5058203;28;20056;-63
2022/08/23 06:40:45;;;;;;;;;;;;;;;23.64;64.44;101006.94;5050997;28;20504;-60
2022/08/23 06:43:29;;;;;;;7.03;2.15;;;;;;;23.53;64.51;101008.09;5055388;28;20703;-63
2022/08/23 06:46:21;;;;;;;9.52;2.15;;;;;;;23.73;64.28;101009.44;5072245;28;20192;-63
2022/08/23 06:48:50;;;;;;;7.63;2.15;;;;;;;23.90;63.57;101003.84;5054595;28;20171;-63
2022/08/23 06:51:27;;;;;;;7.90;4.75;;;;;;;23.95;63.10;101011.13;5068780;28;20051;-62
2022/08/23 06:53:59;;;;;;;6.00;3.22;;;;;;;23.99;62.78;101006.31;5063904;28;20052;-62
2022/08/23 06:56:55;;;;;;;8.40;1.80;;;;;;;24.05;62.55;101014.00;5060719;28;20049;-63
2022/08/23 06:59:31;;;;;;;6.35;1.67;;;;;;;23.85;63.17;101009.84;5040324;28;20138;-63
2022/08/23 07:02:17;;;;;;;5.78;1.67;;;;;;;24.38;61.29;101013.69;5055637;28;20064;-63
2022/08/23 07:04:57;;;;;;;6.88;2.65;;;;;;;24.30;61.40;101014.84;5056655;28;20041;-64
2022/08/23 07:07:51;;;;;;;6.00;1.75;;;;;;;24.17;61.64;101019.25;5049893;28;20045;-62
2022/08/23 07:10:19;;;;;;;5.25;1.70;;;;;;;23.60;63.82;101023.03;5052050;28;20060;-63
2022/08/23 07:12:48;;;;;;;8.43;1.63;;;;;;;22.89;66.67;101027.31;5062070;28;20045;-63
2022/08/23 07:15:19;;;;;;;14.18;2.70;;;;;;;23.37;65.57;101028.09;5052998;28;20049;-62
2022/08/23 07:17:46;;;;;;;6.93;1.40;;;;;;;23.55;64.78;101034.66;5053870;28;20488;-62
2022/08/23 07:20:14;;;;;;;3.00;1.50;;;;;;;23.14;66.94;101031.13;5071088;28;20064;-62
2022/08/23 07:22:43;;;;;;;5.32;1.67;;;;;;;22.96;66.81;101035.81;5054798;28;20045;-63
2022/08/23 07:25:11;;;;;;;4.00;1.65;;;;;;;22.94;68.15;101032.59;5056339;28;20416;-63
2022/08/23 07:27:40;;;;;;;4.55;1.45;;;;;;;23.20;67.31;101042.81;5052227;28;20052;-68
2022/08/23 07:30:09;;;;;;;4.43;1.40;;;;;;;23.22;67.09;101051.69;5054881;28;20048;-70
2022/08/23 07:32:39;;;;;;;4.78;1.52;;;;;;;23.79;66.12;101039.59;5053393;28;20049;-65
2022/08/23 07:35:35;;;;;;;4.28;1.25;;;;;;;23.87;65.20;101041.22;5038576;28;20053;-68
2022/08/23 07:38:06;;;;;;;3.97;1.65;;;;;;;23.16;67.82;101045.59;5055126;28;20036;-69
2022/08/23 07:40:36;;;;;;;9.38;1.77;;;;;;;22.80;69.98;101052.16;5069390;28;20050;-69
2022/08/23 07:43:07;;;;;;;5.93;1.67;;;;;;;23.28;68.86;101050.94;5052358;28;20053;-69
2022/08/23 07:45:37;;;;;;;6.57;1.70;;;;;;;23.34;69.03;101052.19;5062600;28;20056;-68
2022/08/23 07:48:05;;;;;;;5.22;1.90;;;;;;;23.08;68.49;101052.34;5046114;28;20544;-70
2022/08/23 07:50:41;;;;;;;6.75;1.50;;;;;;;23.16;69.06;101045.59;5051041;28;20041;-68
2022/08/23 07:53:25;;;;;;;4.35;1.60;;;;;;;23.05;69.17;101047.53;5045975;28;20736;-69
2022/08/23 07:56:07;;;;;;;3.72;1.45;;;;;;;23.35;68.10;101053.00;5047024;28;20519;-68
2022/08/23 07:58:53;;;;;;;3.53;1.50;;;;;;;23.66;67.26;101052.38;5051064;28;20057;-68
2022/08/23 08:01:38;;;;;;;5.70;1.58;;;;;;;23.34;68.14;101059.81;5039555;28;20595;-66
2022/08/23 08:04:05;;;;;;;5.55;1.75;;;;;;;23.55;67.81;101065.59;5050663;28;20041;-67
2022/08/23 08:06:45;;;;;;;6.03;1.70;;;;;;;23.77;66.35;101063.69;5042020;28;20052;-69
2022/08/23 08:09:14;;;;;;;3.60;1.30;;;;;;;23.91;66.62;101052.50;5066782;28;20064;-69
2022/08/23 08:11:46;;;;;;;5.53;1.80;;;;;;;23.54;66.69;101055.53;5053348;28;20045;-69
2022/08/23 08:14:16;;;;;;;6.63;2.00;;;;;;;23.18;68.41;101059.28;5059169;28;20492;-68
2022/08/23 08:17:02;;;;;;;4.22;1.75;;;;;;;23.32;68.28;101056.59;5045237;28;20200;-69
2022/08/23 08:19:47;;;;;;;5.43;1.60;;;;;;;23.97;66.53;101060.16;5051800;28;20377;-68
2022/08/23 08:22:34;;;;;;;7.30;1.90;;;;;;;24.40;64.62;101059.16;5051141;28;20041;-69
2022/08/23 08:25:29;;;;;;;14.05;3.80;;;;;;;24.68;64.49;101063.22;5047225;28;20546;-68
2022/08/23 08:27:57;;;;;;;17.57;3.53;;;;;;;25.12;62.32;101058.03;5052060;28;20049;-69
2022/08/23 08:30:24;;;;;;;7.32;2.22;;;;;;;25.36;60.80;101063.69;5059358;28;20048;-69
2022/08/23 08:32:52;;;;;;;7.57;2.25;;;;;;;24.92;61.52;101063.25;5053260;28;20064;-70
2022/08/23 08:35:20;;;;;;;24.23;2.85;;;;;;;24.94;62.42;101065.69;5052724;28;20479;-68
2022/08/23 08:37:49;;;;;;;9.95;1.92;;;;;;;24.73;63.16;101062.84;5051658;28;20049;-68
2022/08/23 08:40:20;;;;;;;29.90;3.83;;;;;;;25.26;61.90;101069.31;5052993;28;20055;-69
2022/08/23 08:42:53;;;;;;;22.90;2.63;;;;;;;25.52;60.98;101066.84;5044309;28;20072;-69
2022/08/23 08:45:22;;;;;;;27.65;3.05;;;;;;;25.68;60.68;101074.91;5050773;28;20053;-69
2022/08/23 08:48:05;;;;;;;16.70;2.20;;;;;;;25.89;59.67;101074.03;5052395;28;20049;-69
2022/08/23 08:50:48;;;;;;;;;;;;;;;25.71;60.17;101067.63;5048511;28;20054;-68
2022/08/23 08:53:19;;;;;;;6.63;2.03;;;;;;;25.19;61.42;101069.31;5047035;28;19920;-68
2022/08/23 08:56:26;;;;;;;11.10;2.50;;;;;;;25.34;61.12;101077.34;5052108;28;20060;-68
2022/08/23 08:59:53;;;;;;;8.18;2.38;;;;;;;25.50;61.01;101076.94;5048318;28;20049;-69
2022/08/23 09:02:31;;;;;;;50.95;5.97;;;;;;;25.65;60.38;101070.06;5056654;28;20056;-69
2022/08/23 09:05:16;;;;;;;7.25;2.40;;;;;;;25.81;59.83;101081.69;5050205;28;20827;-68
2022/08/23 09:07:46;;;;;;;;;;;;;;;25.32;61.70;101078.94;5050889;28;20048;-68
2022/08/23 09:10:45;;;;;;;10.50;2.67;;;;;;;25.51;60.97;101082.19;5068966;28;19920;-68
2022/08/23 09:13:24;;;;;;;6.50;2.03;;;;;;;25.30;61.47;101076.53;5051742;28;20412;-71
2022/08/23 09:16:03;;;;;;;6.82;1.90;;;;;;;25.87;60.69;101080.09;5030991;28;20045;-69
2022/08/23 09:18:33;;;;;;;6.45;1.83;;;;;;;26.02;59.90;101076.00;5048525;28;20045;-66
2022/08/23 09:21:05;;;;;;;38.90;6.40;;;;;;;26.11;59.67;101076.38;5052108;28;20052;-69
2022/08/23 09:23:39;;;;;;;33.80;6.63;;;;;;;26.42;59.10;101074.59;5039009;28;20406;-69
2022/08/23 09:26:19;;;;;;;26.77;6.10;;;;;;;26.56;58.35;101083.00;5035438;28;20049;-68
2022/08/23 09:28:50;;;;;;;11.38;3.40;;;;;;;26.54;57.50;101083.41;5057343;28;20049;-69
2022/08/23 09:31:42;;;;;;;6.93;1.55;;;;;;;26.84;56.57;101084.84;5052329;28;20064;-68
2022/08/23 09:34:19;;;;;;;24.40;4.03;;;;;;;26.59;57.77;101079.34;5045160;28;20067;-69
2022/08/23 09:37:21;;;;;;;9.23;2.65;;;;;;;26.10;58.50;101080.41;5062855;28;20048;-68
2022/08/23 09:40:10;;;;;;;7.28;1.70;;;;;;;26.30;58.10;101089.19;5041233;28;20053;-69
2022/08/23 09:42:39;;;;;;;11.52;2.30;;;;;;;26.39;57.99;101083.91;5042515;28;20045;-69
2022/08/23 09:45:34;;;;;;;6.50;2.45;;;;;;;26.57;57.55;101081.81;5064918;28;20037;-68
2022/08/23 09:48:06;;;;;;;4.97;2.40;;;;;;;26.60;57.42;101078.94;5029161;28;20049;-68
2022/08/23 09:50:53;;;;;;;7.60;2.22;;;;;;;26.78;57.17;101078.84;5052598;28;20045;-69
2022/08/23 09:53:28;;;;;;;6.43;1.88;;;;;;;26.98;56.33;101073.44;5034921;28;20044;-69
2022/08/23 09:55:58;;;;;;;5.90;1.73;;;;;;;27.02;56.24;101077.06;5062213;28;20034;-69
2022/08/23 09:58:42;;;;;;;5.90;2.17;;;;;;;26.93;56.08;101076.72;5074428;28;20056;-63
2022/08/23 10:01:23;;;;;;;5.68;1.40;;;;;;;26.83;57.01;101077.59;5069066;28;20053;-63
2022/08/23 10:04:09;;;;;;;5.53;1.52;;;;;;;26.62;57.17;101079.31;5054104;28;20061;-64
2022/08/23 10:06:37;;;;;;;6.30;1.40;;;;;;;26.82;57.21;101075.97;5052437;28;20048;-64
2022/08/23 10:09:07;;;;;;;4.50;1.30;;;;;;;27.09;56.61;101068.50;5033679;28;20060;-64
2022/08/23 10:11:40;;;;;;;3.15;1.30;;;;;;;26.34;58.28;101071.00;5046892;28;20424;-64
2022/08/23 10:14:14;;;;;;;3.65;1.20;;;;;;;26.24;58.32;101065.44;5033181;28;20045;-65
2022/08/23 10:17:14;;;;;;;4.47;1.30;;;;;;;26.39;58.25;101058.50;5048913;28;20052;-64
2022/08/23 10:20:20;;;;;;;7.82;3.45;;;;;;;26.49;57.73;101060.44;5049742;28;20064;-66
2022/08/23 10:22:57;;;;;;;4.18;1.48;;;;;;;26.28;58.79;101063.38;5068948;28;20052;-65
2022/08/23 10:25:40;;;;;;;4.85;1.70;;;;;;;26.29;58.33;101065.78;5050118;28;20045;-65
2022/08/23 10:31:15;;;;;;;11.43;2.75;;;;;;;27.01;57.24;101050.78;5062176;28;20053;-65
2022/08/23 10:33:49;;;;;;;3.50;1.48;;;;;;;27.04;56.76;101049.16;5050784;28;20519;-66
2022/08/23 10:36:46;;;;;;;6.28;1.70;;;;;;;27.17;56.59;101042.56;5030728;28;20052;-66
2022/08/23 10:39:28;;;;;;;3.25;1.30;;;;;;;27.17;55.88;101044.59;4980170;28;20107;-67
2022/08/23 10:41:56;;;;;;;6.97;1.85;;;;;;;26.95;56.50;101040.34;5033887;28;20050;-65
2022/08/23 10:44:36;;;;;;;7.63;1.90;;;;;;;27.25;55.35;101032.00;5054206;28;20056;-63
2022/08/23 10:47:27;;;;;;;4.40;1.52;;;;;;;27.03;55.91;101037.03;5071680;28;20066;-63
2022/08/23 10:49:57;;;;;;;5.20;1.23;;;;;;;26.50;56.50;101048.72;5048856;28;20056;-63
2022/08/23 10:52:30;;;;;;;6.53;1.65;;;;;;;26.15;58.04;101039.66;5059389;28;20044;-65
2022/08/23 10:55:05;;;;;;;8.35;2.95;;;;;;;26.21;57.70;101041.63;5067516;28;20055;-63
2022/08/23 10:57:38;;;;;;;13.60;8.45;;;;;;;26.04;58.49;101039.72;5077850;28;20068;-63
2022/08/23 11:00:11;;;;;;;9.25;3.30;;;;;;;25.73;59.33;101043.44;5061174;28;20056;-64
2022/08/23 11:02:43;;;;;;;3.50;1.88;;;;;;;25.76;59.18;101036.97;5055252;28;20057;-63
2022/08/23 11:05:34;;;;;;;4.15;1.40;;;;;;;26.20;58.13;101036.41;5052014;28;20045;-62
2022/08/23 11:08:30;;;;;;;2.78;1.00;;;;;;;26.46;56.80;101047.16;5046110;28;20056;-62
2022/08/23 11:11:00;;;;;;;3.25;0.98;;;;;;;26.93;55.81;101034.31;5071685;28;20045;-62
2022/08/23 11:13:33;;;;;;;5.57;2.80;;;;;;;26.73;54.74;101031.22;5075570;28;20380;-62
2022/08/23 11:16:24;;;;;;;3.30;1.85;;;;;;;26.62;54.89;101030.50;5053497;28;20543;-63
2022/08/23 11:18:51;;;;;;;8.27;2.50;;;;;;;26.69;55.43;101024.00;5044845;28;20067;-63
2022/08/23 11:21:27;;;;;;;2.88;1.10;;;;;;;27.10;54.64;101027.69;5055652;28;20049;-63
2022/08/23 11:23:58;;;;;;;7.70;1.80;;;;;;;27.44;53.66;101025.78;5040729;28;20049;-62
2022/08/23 11:26:35;;;;;;;9.85;2.35;;;;;;;27.47;52.63;101022.09;5051397;28;20045;-62
2022/08/23 11:29:05;;;;;;;22.05;3.60;;;;;;;27.55;51.65;101015.94;5068368;28;20045;-61
2022/08/23 11:32:06;;;;;;;1.73;0.82;;;;;;;26.55;53.56;101024.88;5049979;28;20049;-62
2022/08/23 11:34:39;;;;;;;2.83;1.20;;;;;;;26.65;54.81;101021.97;5049772;28;20053;-62
2022/08/23 11:37:19;;;;;;;4.72;0.70;;;;;;;26.85;52.65;101021.47;5051412;28;20041;-61
2022/08/23 11:39:57;;;;;;;6.00;2.15;;;;;;;26.62;53.52;101025.63;5073375;28;20053;-62
2022/08/23 11:42:36;;;;;;;7.40;1.27;;;;;;;27.06;51.99;101032.59;5052008;28;20057;-65
2022/08/23 11:45:19;;;;;;;13.55;1.98;;;;;;;27.53;51.86;101017.59;5071043;28;20067;-65
2022/08/23 11:48:28;;;;;;;4.18;1.02;;;;;;;27.16;50.78;101029.66;5037615;28;20045;-65
2022/08/23 11:51:27;;;;;;;2.80;1.85;;;;;;;27.17;50.68;101030.44;5056598;28;20049;-63
2022/08/23 11:54:09;;;;;;;3.13;1.30;;;;;;;27.55;50.85;101023.59;5065652;28;20052;-65
2022/08/23 11:56:46;;;;;;;2.60;1.02;;;;;;;27.76;50.39;101020.53;5044833;28;20057;-62
2022/08/23 11:59:33;;;;;;;13.15;1.55;;;;;;;27.97;50.77;101020.28;5050787;28;20503;-64
2022/08/23 12:03:05;;;;;;;4.82;1.63;;;;;;;28.14;49.78;101021.31;5044404;28;21836;-62
2022/08/23 12:05:32;;;;;;;2.40;0.88;;;;;;;28.12;47.98;101026.59;4992045;28;20827;-61
2022/08/23 12:08:00;;;;;;;1.58;0.70;;;;;;;27.26;49.72;101020.25;5011129;28;20058;-62
2022/08/23 12:10:54;;;;;;;18.17;1.50;;;;;;;27.15;50.90;101019.56;5037976;28;20531;-62
2022/08/23 12:13:21;;;;;;;8.43;1.30;;;;;;;27.52;50.47;101013.94;5034248;28;20436;-61